Time;durP1;ratioP1;P1;durP2;ratioP2;P2;SDS_P1;SDS_P2;PMS_P1;PMS_P2;Temp;Humidity;BMP_temperature;BMP_pressure;BME280_temperature;BME280_humidity;BME280_pressure;Samples;Min_cycle;Max_cycle;Signal;HPM_P1;HPM_P2
2021/11/06 00:02:03;;;;;;;45.60;12.50;;;3.80;99.70;;;;;;4990316;28;20061;-75
2021/11/06 00:04:29;;;;;;;87.90;13.68;;;3.80;99.80;;;;;;4990747;28;20037;-75
2021/11/06 00:06:54;;;;;;;108.07;13.60;;;3.80;99.80;;;;;;4991286;28;20077;-75
2021/11/06 00:09:20;;;;;;;95.40;13.77;;;3.80;99.90;;;;;;4973436;28;20545;-75
2021/11/06 00:11:46;;;;;;;89.07;13.18;;;3.80;99.90;;;;;;4990942;28;20118;-77
2021/11/06 00:14:11;;;;;;;78.55;12.50;;;3.90;99.90;;;;;;4990085;28;20035;-74
2021/11/06 00:16:37;;;;;;;78.60;12.50;;;3.80;99.60;;;;;;4978315;28;20109;-75
2021/11/06 00:19:03;;;;;;;95.95;12.50;;;3.80;99.60;;;;;;4991043;28;20407;-75
2021/11/06 00:21:28;;;;;;;83.97;12.93;;;3.70;99.60;;;;;;4990559;28;20470;-76
2021/11/06 00:23:54;;;;;;;46.50;11.90;;;3.70;99.80;;;;;;4989982;28;20044;-76
2021/11/06 00:26:20;;;;;;;46.33;11.38;;;3.60;99.90;;;;;;4973639;28;20394;-76
2021/11/06 00:28:45;;;;;;;67.97;11.88;;;3.60;99.90;;;;;;4973969;28;20037;-75
2021/11/06 00:31:11;;;;;;;34.60;13.48;;;3.60;99.90;;;;;;4973105;28;20064;-75
2021/11/06 00:33:37;;;;;;;48.53;13.45;;;3.60;99.90;;;;;;4981042;28;20061;-75
2021/11/06 00:36:03;;;;;;;61.40;13.65;;;3.70;99.90;;;;;;4969399;28;20069;-76
2021/11/06 00:38:28;;;;;;;40.53;12.75;;;3.70;99.90;;;;;;4990906;28;20030;-78
2021/11/06 00:40:54;;;;;;;118.65;15.23;;;3.70;99.90;;;;;;4990842;28;20082;-75
2021/11/06 00:43:20;;;;;;;122.45;13.23;;;3.80;99.90;;;;;;4972845;28;20049;-75
2021/11/06 00:45:45;;;;;;;47.67;12.98;;;3.80;99.90;;;;;;4989845;28;20065;-76
2021/11/06 00:48:11;;;;;;;64.25;13.30;;;3.80;99.90;;;;;;4973317;28;20026;-76
2021/11/06 00:50:37;;;;;;;74.75;13.13;;;3.80;99.90;;;;;;4992958;28;20103;-75
2021/11/06 00:53:03;;;;;;;69.30;12.68;;;3.90;99.90;;;;;;4996020;28;20438;-76
2021/11/06 00:55:28;;;;;;;70.85;12.70;;;3.90;99.90;;;;;;4990935;28;20027;-75
2021/11/06 00:57:54;;;;;;;43.83;12.52;;;3.80;99.90;;;;;;4972914;28;20057;-76
2021/11/06 01:00:20;;;;;;;45.80;13.30;;;3.80;99.80;;;;;;4990572;28;20132;-76
2021/11/06 01:02:46;;;;;;;35.75;12.07;;;3.70;99.90;;;;;;4972523;28;20022;-75
2021/11/06 01:05:13;;;;;;;59.88;11.82;;;3.60;99.90;;;;;;4990274;28;20598;-75
2021/11/06 01:07:40;;;;;;;55.55;12.55;;;3.60;99.90;;;;;;4972930;28;20100;-76
2021/11/06 01:10:08;;;;;;;45.70;12.63;;;3.60;99.90;;;;;;4990210;28;20109;-76
2021/11/06 01:12:34;;;;;;;44.60;13.82;;;3.50;99.90;;;;;;4972662;28;20026;-75
2021/11/06 01:15:00;;;;;;;67.70;13.70;;;3.50;99.90;;;;;;4972412;28;20080;-75
2021/11/06 01:17:25;;;;;;;50.60;14.73;;;3.50;99.90;;;;;;4990326;28;20030;-77
2021/11/06 01:19:51;;;;;;;44.92;13.63;;;3.40;99.90;;;;;;4973275;28;20438;-74
2021/11/06 01:22:17;;;;;;;41.53;13.13;;;3.40;99.90;;;;;;4972735;28;20023;-74
2021/11/06 01:24:43;;;;;;;50.75;13.50;;;3.30;99.90;;;;;;4989450;28;20034;-75
2021/11/06 01:27:11;;;;;;;46.72;14.10;;;3.30;99.90;;;;;;4990474;28;20032;-75
2021/11/06 01:29:38;;;;;;;64.35;13.80;;;3.20;99.90;;;;;;4974372;28;20030;-75
2021/11/06 01:32:06;;;;;;;66.78;13.50;;;3.20;99.90;;;;;;4976918;28;20030;-78
2021/11/06 01:34:32;;;;;;;81.80;13.07;;;3.20;99.90;;;;;;4983164;28;20034;-75
2021/11/06 01:36:58;;;;;;;77.20;13.50;;;3.20;99.90;;;;;;4976124;28;20479;-77
2021/11/06 01:39:23;;;;;;;79.30;13.48;;;3.20;99.90;;;;;;4976616;28;20045;-75
2021/11/06 01:41:49;;;;;;;80.90;15.02;;;3.20;99.90;;;;;;4976677;28;20626;-75
2021/11/06 01:44:14;;;;;;;98.07;12.85;;;3.20;99.90;;;;;;4992400;28;20347;-76
2021/11/06 01:46:40;;;;;;;108.75;13.15;;;3.20;99.90;;;;;;4993881;28;20068;-76
2021/11/06 01:49:06;;;;;;;119.30;13.50;;;3.20;99.90;;;;;;4982926;28;20192;-75
2021/11/06 01:51:31;;;;;;;96.70;13.60;;;3.20;99.90;;;;;;4976405;28;20018;-76
2021/11/06 01:53:57;;;;;;;107.65;12.63;;;3.20;99.90;;;;;;4992452;28;20022;-76
2021/11/06 01:56:23;;;;;;;139.77;11.57;;;3.20;99.90;;;;;;4993942;28;20019;-76
2021/11/06 01:58:49;;;;;;;109.40;11.85;;;3.20;99.90;;;;;;4976141;28;20098;-77
2021/11/06 02:01:15;;;;;;;132.02;12.18;;;3.20;99.90;;;;;;4976174;28;20026;-77
2021/11/06 02:03:40;;;;;;;141.55;12.88;;;3.20;99.90;;;;;;4992409;28;20033;-76
2021/11/06 02:06:06;;;;;;;120.13;11.45;;;3.30;99.90;;;;;;4975506;28;20121;-75
2021/11/06 02:08:32;;;;;;;119.60;12.65;;;3.30;99.90;;;;;;4984047;28;20101;-75
2021/11/06 02:10:58;;;;;;;130.18;11.25;;;3.30;99.90;;;;;;4962410;28;20026;-76
2021/11/06 02:13:24;;;;;;;131.50;11.02;;;3.30;99.90;;;;;;4974458;28;20034;-76
2021/11/06 02:15:49;;;;;;;169.50;13.30;;;3.20;99.90;;;;;;4976118;28;20066;-76
2021/11/06 02:18:15;;;;;;;90.10;10.48;;;3.30;99.90;;;;;;4983307;28;20026;-76
2021/11/06 02:20:49;;;;;;;145.68;11.13;;;3.30;99.90;;;;;;4975992;28;20022;-75
2021/11/06 02:23:16;;;;;;;257.58;12.13;;;3.30;99.90;;;;;;4974994;28;20096;-75
2021/11/06 02:25:42;;;;;;;170.98;9.70;;;3.20;99.90;;;;;;4993358;28;20023;-75
2021/11/06 02:28:08;;;;;;;86.03;8.95;;;3.20;99.90;;;;;;4975236;28;20040;-76
2021/11/06 02:30:33;;;;;;;86.43;9.93;;;3.10;99.90;;;;;;4992028;28;20018;-77
2021/11/06 02:33:00;;;;;;;73.50;9.77;;;3.10;99.90;;;;;;4991052;28;20033;-75
2021/11/06 02:35:26;;;;;;;117.75;9.73;;;3.10;99.90;;;;;;4966895;28;20343;-75
2021/11/06 02:37:52;;;;;;;75.95;9.52;;;3.10;99.90;;;;;;4975275;28;20014;-75
2021/11/06 02:40:17;;;;;;;111.70;10.27;;;3.10;99.90;;;;;;4992321;28;20084;-75
2021/11/06 02:42:43;;;;;;;148.38;10.40;;;3.20;99.90;;;;;;4991969;28;20167;-75
2021/11/06 02:45:11;;;;;;;110.28;8.55;;;3.20;99.90;;;;;;4974956;28;20104;-75
2021/11/06 02:47:37;;;;;;;139.57;10.73;;;3.20;99.90;;;;;;4992678;28;20122;-75
2021/11/06 02:50:04;;;;;;;142.73;10.10;;;3.20;99.90;;;;;;4981269;28;20117;-76
2021/11/06 02:52:29;;;;;;;92.95;9.15;;;3.10;99.90;;;;;;4992569;28;20054;-76
2021/11/06 02:54:55;;;;;;;179.68;11.95;;;3.10;99.90;;;;;;4991417;28;20497;-75
2021/11/06 02:57:21;;;;;;;63.13;10.98;;;3.10;99.90;;;;;;4972954;28;20528;-75
2021/11/06 02:59:49;;;;;;;49.85;10.63;;;3.10;99.90;;;;;;4978574;28;20030;-75
2021/11/06 03:02:15;;;;;;;48.13;10.75;;;3.00;99.90;;;;;;4987296;28;20022;-74
2021/11/06 03:04:41;;;;;;;54.38;10.77;;;2.90;99.90;;;;;;4973776;28;20026;-75
2021/11/06 03:07:06;;;;;;;41.95;11.05;;;2.80;99.90;;;;;;4974926;28;20022;-76
2021/11/06 03:09:38;;;;;;;53.47;11.43;;;2.80;99.90;;;;;;4957282;28;20023;-74
2021/11/06 03:12:05;;;;;;;48.65;10.73;;;2.80;99.90;;;;;;4973760;28;20042;-75
2021/11/06 03:14:33;;;;;;;43.38;10.63;;;2.80;99.90;;;;;;4990777;28;20036;-74
2021/11/06 03:16:58;;;;;;;33.08;10.93;;;2.70;99.90;;;;;;4974894;28;20084;-74
2021/11/06 03:19:24;;;;;;;60.83;11.27;;;2.70;99.90;;;;;;4973997;28;20030;-74
2021/11/06 03:21:49;;;;;;;44.25;10.23;;;2.70;99.90;;;;;;4974394;28;20064;-74
2021/11/06 03:24:15;;;;;;;57.50;10.95;;;2.60;99.90;;;;;;4991078;28;20026;-75
2021/11/06 03:26:41;;;;;;;44.47;12.00;;;2.60;99.90;;;;;;4974240;28;20031;-75
2021/11/06 03:29:07;;;;;;;38.95;11.80;;;2.60;99.90;;;;;;4974446;28;20036;-75
2021/11/06 03:31:33;;;;;;;37.40;10.77;;;2.50;99.90;;;;;;4992024;28;20402;-75
2021/11/06 03:33:58;;;;;;;32.67;11.38;;;2.50;99.90;;;;;;4990692;28;20023;-74
2021/11/06 03:36:24;;;;;;;39.35;10.65;;;2.50;99.90;;;;;;4973823;28;20497;-75
2021/11/06 03:38:50;;;;;;;54.88;12.20;;;2.50;99.90;;;;;;4973842;28;20049;-75
2021/11/06 03:41:16;;;;;;;69.05;10.48;;;2.40;99.90;;;;;;4973554;28;20034;-75
2021/11/06 03:43:41;;;;;;;48.65;10.68;;;2.50;99.90;;;;;;4972916;28;20026;-75
2021/11/06 03:46:07;;;;;;;40.78;9.60;;;2.50;99.90;;;;;;4974223;28;20522;-75
2021/11/06 03:48:33;;;;;;;48.50;10.32;;;2.50;99.90;;;;;;4970467;28;20469;-75
2021/11/06 03:50:59;;;;;;;40.90;9.98;;;2.50;99.90;;;;;;4990202;28;20108;-75
2021/11/06 03:53:25;;;;;;;40.13;10.57;;;2.50;99.90;;;;;;4967874;28;20118;-75
2021/11/06 03:55:51;;;;;;;29.25;10.48;;;2.50;99.90;;;;;;4990410;28;20044;-74
2021/11/06 03:58:17;;;;;;;43.22;8.65;;;2.50;99.90;;;;;;4989999;28;20526;-75
2021/11/06 04:00:42;;;;;;;36.28;8.63;;;2.50;99.90;;;;;;4991267;28;20023;-75
2021/11/06 04:03:08;;;;;;;30.85;8.65;;;2.50;99.90;;;;;;4976336;28;20030;-75
2021/11/06 04:05:34;;;;;;;42.83;9.43;;;2.50;99.90;;;;;;5000341;28;20058;-75
2021/11/06 04:07:59;;;;;;;49.80;9.45;;;2.40;99.90;;;;;;4973820;28;20027;-75
2021/11/06 04:10:25;;;;;;;58.33;9.48;;;2.40;99.90;;;;;;4973777;28;20027;-74
2021/11/06 04:12:51;;;;;;;48.15;8.18;;;2.40;99.90;;;;;;4972738;28;20057;-75
2021/11/06 04:15:17;;;;;;;36.38;8.52;;;2.30;99.90;;;;;;4989603;28;20033;-76
2021/11/06 04:17:42;;;;;;;46.75;9.05;;;2.30;99.90;;;;;;4973760;28;20026;-75
2021/11/06 04:20:09;;;;;;;40.00;8.68;;;2.30;99.90;;;;;;4972935;28;20148;-75
2021/11/06 04:22:35;;;;;;;54.15;8.95;;;2.30;99.90;;;;;;4972623;28;20018;-75
2021/11/06 04:25:02;;;;;;;43.42;8.18;;;2.30;99.90;;;;;;4973776;28;20368;-75
2021/11/06 04:27:28;;;;;;;38.67;8.43;;;2.30;99.90;;;;;;4973246;28;20034;-74
2021/11/06 04:29:53;;;;;;;65.88;8.45;;;2.40;99.90;;;;;;4991171;28;20031;-75
2021/11/06 04:32:19;;;;;;;38.83;8.10;;;2.40;99.90;;;;;;4990538;28;20493;-75
2021/11/06 04:34:45;;;;;;;168.80;9.85;;;2.50;99.90;;;;;;4972303;28;20085;-76
2021/11/06 04:37:10;;;;;;;70.85;8.68;;;2.50;99.90;;;;;;4973139;28;20144;-75
2021/11/06 04:39:36;;;;;;;33.83;7.93;;;2.50;99.90;;;;;;4973584;28;20391;-74
2021/11/06 04:42:03;;;;;;;51.20;8.88;;;2.60;99.90;;;;;;4972807;28;20113;-74
2021/11/06 04:44:28;;;;;;;39.10;9.02;;;2.60;99.90;;;;;;4972406;28;20030;-75
2021/11/06 04:46:54;;;;;;;36.83;8.35;;;2.60;99.90;;;;;;4973491;28;20121;-74
2021/11/06 04:49:19;;;;;;;59.97;8.48;;;2.60;99.90;;;;;;4973175;28;20559;-74
2021/11/06 04:51:45;;;;;;;27.98;7.93;;;2.60;99.90;;;;;;4990111;28;20037;-75
2021/11/06 04:54:11;;;;;;;35.70;8.15;;;2.60;99.90;;;;;;4990009;28;20026;-74
2021/11/06 04:56:37;;;;;;;42.55;8.30;;;2.60;99.90;;;;;;4989768;28;20019;-75
2021/11/06 04:59:03;;;;;;;35.10;8.02;;;2.50;99.90;;;;;;4973304;28;20019;-74
2021/11/06 05:01:30;;;;;;;50.40;8.05;;;2.50;99.90;;;;;;4990563;28;20634;-74
2021/11/06 05:03:55;;;;;;;28.25;7.63;;;2.40;99.90;;;;;;4978982;28;20080;-74
2021/11/06 05:06:21;;;;;;;43.08;8.20;;;2.40;99.90;;;;;;4968134;28;20038;-74
2021/11/06 05:08:46;;;;;;;38.28;8.63;;;2.40;99.90;;;;;;4984362;28;20030;-74
2021/11/06 05:11:12;;;;;;;42.78;8.07;;;2.40;99.90;;;;;;4976881;28;20045;-75
2021/11/06 05:13:38;;;;;;;43.90;7.95;;;2.40;99.90;;;;;;4989539;23;20046;-71
2021/11/06 05:16:03;;;;;;;54.97;9.15;;;2.40;99.90;;;;;;4972421;28;20062;-71
2021/11/06 05:18:29;;;;;;;64.80;8.50;;;2.40;99.90;;;;;;4964492;28;20057;-71
2021/11/06 05:20:55;;;;;;;40.03;8.13;;;2.40;99.90;;;;;;4973903;28;20031;-71
2021/11/06 05:23:21;;;;;;;32.08;7.65;;;2.40;99.90;;;;;;4973111;28;20015;-71
2021/11/06 05:25:47;;;;;;;45.33;8.25;;;2.40;99.90;;;;;;4972431;28;20038;-71
2021/11/06 05:28:14;;;;;;;115.35;8.57;;;2.40;99.90;;;;;;4974320;28;20033;-71
2021/11/06 05:30:40;;;;;;;88.03;8.30;;;2.40;99.90;;;;;;4974417;28;20038;-71
2021/11/06 05:33:06;;;;;;;73.15;6.93;;;2.40;99.90;;;;;;4973677;28;20066;-71
2021/11/06 05:35:31;;;;;;;123.47;8.75;;;2.30;99.90;;;;;;4956658;28;20717;-72
2021/11/06 05:37:57;;;;;;;155.57;8.32;;;2.40;99.90;;;;;;4973398;28;20379;-71
2021/11/06 05:40:23;;;;;;;122.30;8.48;;;2.40;99.90;;;;;;4974265;28;20035;-71
2021/11/06 05:42:49;;;;;;;41.15;6.28;;;2.30;99.90;;;;;;4956084;28;20427;-71
2021/11/06 05:45:15;;;;;;;120.85;9.27;;;2.40;99.90;;;;;;4970597;28;20031;-71
2021/11/06 05:47:40;;;;;;;104.47;8.65;;;2.40;99.90;;;;;;4973326;28;20034;-70
2021/11/06 05:50:09;;;;;;;117.13;10.07;;;2.40;99.90;;;;;;4972842;28;20038;-71
2021/11/06 05:52:35;;;;;;;55.80;7.35;;;2.40;99.90;;;;;;4971615;28;20019;-71
2021/11/06 05:55:02;;;;;;;71.90;8.60;;;2.30;99.90;;;;;;4973402;28;20038;-71
2021/11/06 05:57:29;;;;;;;54.60;7.97;;;2.30;99.90;;;;;;4956527;28;20110;-71
2021/11/06 05:59:54;;;;;;;96.57;8.40;;;2.30;99.90;;;;;;4973659;28;20026;-70
2021/11/06 06:02:20;;;;;;;112.93;9.10;;;2.40;99.90;;;;;;4973324;28;20411;-71
2021/11/06 06:04:46;;;;;;;81.57;8.10;;;2.30;99.90;;;;;;4971853;28;20034;-71
2021/11/06 06:07:11;;;;;;;82.97;7.95;;;2.40;99.90;;;;;;4967967;28;20380;-71
2021/11/06 06:09:37;;;;;;;93.18;8.52;;;2.30;99.90;;;;;;4963451;28;20193;-71
2021/11/06 06:12:03;;;;;;;82.93;8.25;;;2.30;99.90;;;;;;4973377;28;20106;-71
2021/11/06 06:14:29;;;;;;;75.95;7.60;;;2.30;99.90;;;;;;4970097;28;20034;-71
2021/11/06 06:16:54;;;;;;;46.90;7.70;;;2.30;99.90;;;;;;4960761;28;20030;-71
2021/11/06 06:19:20;;;;;;;138.35;9.98;;;2.30;99.90;;;;;;4962052;28;20027;-71
2021/11/06 06:21:46;;;;;;;134.23;8.63;;;2.30;99.90;;;;;;4972198;28;20029;-71
2021/11/06 06:24:11;;;;;;;93.00;8.05;;;2.40;99.90;;;;;;4972387;28;20035;-71
2021/11/06 06:26:37;;;;;;;103.10;8.70;;;2.30;99.90;;;;;;4970058;28;20065;-71
2021/11/06 06:29:02;;;;;;;88.38;8.40;;;2.30;99.90;;;;;;4955932;28;20162;-71
2021/11/06 06:31:28;;;;;;;135.27;8.55;;;2.30;99.90;;;;;;4971050;28;20027;-71
2021/11/06 06:33:54;;;;;;;98.30;8.70;;;2.30;99.90;;;;;;4972211;28;20082;-71
2021/11/06 06:36:20;;;;;;;122.10;8.63;;;2.30;99.90;;;;;;4971019;28;20089;-71
2021/11/06 06:38:46;;;;;;;122.75;9.02;;;2.30;99.90;;;;;;4972488;28;20483;-71
2021/11/06 06:41:11;;;;;;;92.50;8.70;;;2.30;99.90;;;;;;4972910;28;20019;-71
2021/11/06 06:43:37;;;;;;;88.53;7.93;;;2.30;99.90;;;;;;4954435;28;20403;-71
2021/11/06 06:46:03;;;;;;;112.13;9.10;;;2.20;99.90;;;;;;4961871;28;20195;-71
2021/11/06 06:48:28;;;;;;;104.82;9.38;;;2.20;99.90;;;;;;4955724;28;20034;-71
2021/11/06 06:50:54;;;;;;;78.72;8.82;;;2.20;99.90;;;;;;4971874;28;20027;-71
2021/11/06 06:53:21;;;;;;;55.90;7.25;;;2.10;99.90;;;;;;4954215;28;20035;-71
2021/11/06 06:55:47;;;;;;;47.28;7.47;;;2.20;99.90;;;;;;4971879;28;20122;-70
2021/11/06 06:58:13;;;;;;;109.90;9.73;;;2.20;99.90;;;;;;4972725;28;20031;-71
2021/11/06 07:00:39;;;;;;;103.07;8.32;;;2.30;99.90;;;;;;4971093;28;20033;-71
2021/11/06 07:03:04;;;;;;;66.35;7.32;;;2.20;99.90;;;;;;4971213;28;20027;-71
2021/11/06 07:05:31;;;;;;;55.70;7.72;;;2.20;99.90;;;;;;4971873;28;20542;-71
2021/11/06 07:07:57;;;;;;;97.47;8.18;;;2.20;99.90;;;;;;4972384;28;20031;-71
2021/11/06 07:10:24;;;;;;;115.68;8.60;;;2.20;99.90;;;;;;4962912;28;20053;-71
2021/11/06 07:12:49;;;;;;;95.07;8.20;;;2.20;99.90;;;;;;4971230;28;20062;-71
2021/11/06 07:15:15;;;;;;;34.60;7.78;;;2.20;99.90;;;;;;4962484;28;20034;-70
2021/11/06 07:17:41;;;;;;;58.67;8.38;;;2.10;99.90;;;;;;4977676;28;20023;-71
2021/11/06 07:20:08;;;;;;;42.53;8.02;;;2.10;99.90;;;;;;4971626;28;20031;-71
2021/11/06 07:22:35;;;;;;;104.72;9.77;;;2.10;99.90;;;;;;4971131;28;20029;-69
2021/11/06 07:25:01;;;;;;;103.22;8.10;;;2.10;99.90;;;;;;4971051;28;20034;-68
2021/11/06 07:27:27;;;;;;;102.03;8.93;;;2.10;99.90;;;;;;4971463;28;20026;-67
2021/11/06 07:29:52;;;;;;;86.35;8.35;;;2.20;99.90;;;;;;4970322;28;20375;-69
2021/11/06 07:32:18;;;;;;;68.55;7.80;;;2.20;99.90;;;;;;4968870;28;20039;-69
2021/11/06 07:34:44;;;;;;;59.08;8.15;;;2.10;99.90;;;;;;4967190;28;20027;-69
2021/11/06 07:37:10;;;;;;;62.55;7.97;;;2.10;99.90;;;;;;4970099;28;20621;-69
2021/11/06 07:39:35;;;;;;;47.83;8.63;;;2.10;99.90;;;;;;4969428;28;20027;-69
2021/11/06 07:42:01;;;;;;;67.93;8.95;;;2.10;99.90;;;;;;4971725;28;20041;-71
2021/11/06 07:44:27;;;;;;;109.22;9.32;;;2.10;99.90;;;;;;4969299;28;20510;-70
2021/11/06 07:46:52;;;;;;;79.20;8.07;;;2.20;99.90;;;;;;4958985;28;20435;-72
2021/11/06 07:49:19;;;;;;;71.80;7.75;;;2.20;99.90;;;;;;4961196;28;20022;-72
2021/11/06 07:51:45;;;;;;;71.63;7.93;;;2.20;99.90;;;;;;4971591;28;20023;-72
2021/11/06 07:54:11;;;;;;;33.85;6.45;;;2.20;99.90;;;;;;4971151;28;20031;-72
2021/11/06 07:56:38;;;;;;;46.33;7.32;;;2.20;99.90;;;;;;4955078;28;20476;-72
2021/11/06 07:59:05;;;;;;;48.45;7.25;;;2.20;99.90;;;;;;4954603;28;20113;-72
2021/11/06 08:01:30;;;;;;;41.78;9.00;;;2.30;99.90;;;;;;4950376;28;20030;-72
2021/11/06 08:03:56;;;;;;;57.95;7.90;;;2.30;99.90;;;;;;4957724;28;20100;-71
2021/11/06 08:06:22;;;;;;;77.53;8.68;;;2.40;99.90;;;;;;4971653;28;20027;-72
2021/11/06 08:08:47;;;;;;;150.95;10.18;;;2.40;99.90;;;;;;4971354;28;20085;-72
2021/11/06 08:11:13;;;;;;;57.95;8.23;;;2.40;99.90;;;;;;4969089;28;20042;-72
2021/11/06 08:13:38;;;;;;;67.75;8.73;;;2.40;99.90;;;;;;4970342;28;20027;-72
2021/11/06 08:16:05;;;;;;;53.13;8.23;;;2.40;99.90;;;;;;4957548;28;20235;-71
2021/11/06 08:18:32;;;;;;;76.07;19.90;;;2.50;99.90;;;;;;4965196;28;20117;-71
2021/11/06 08:20:58;;;;;;;83.05;10.25;;;2.50;99.90;;;;;;4953033;28;20029;-70
2021/11/06 08:23:23;;;;;;;108.05;9.50;;;2.60;99.90;;;;;;4953072;28;20030;-71
2021/11/06 08:25:50;;;;;;;94.35;9.88;;;2.70;99.90;;;;;;4971219;28;20491;-71
2021/11/06 08:28:16;;;;;;;56.13;8.50;;;2.70;99.90;;;;;;4970174;28;20419;-71
2021/11/06 08:30:41;;;;;;;63.08;9.48;;;2.70;99.90;;;;;;4969656;28;20094;-70
2021/11/06 08:33:07;;;;;;;73.05;9.82;;;2.70;99.90;;;;;;4969270;28;20148;-70
2021/11/06 08:35:33;;;;;;;48.40;10.15;;;2.80;99.90;;;;;;4979006;28;20390;-70
2021/11/06 08:38:01;;;;;;;42.28;9.70;;;2.80;99.90;;;;;;4974818;28;20085;-70
2021/11/06 08:40:28;;;;;;;88.80;10.80;;;2.90;99.90;;;;;;4954062;28;20043;-71
2021/11/06 08:42:54;;;;;;;69.93;9.20;;;2.90;99.90;;;;;;4984008;28;20034;-70
2021/11/06 08:45:21;;;;;;;70.53;10.48;;;2.90;99.90;;;;;;4976601;28;20066;-72
2021/11/06 08:47:47;;;;;;;76.07;9.77;;;3.00;99.90;;;;;;4964976;28;20031;-70
2021/11/06 08:50:17;;;;;;;83.40;10.38;;;3.00;99.90;;;;;;4973976;28;20034;-70
2021/11/06 08:52:43;;;;;;;54.72;10.25;;;3.10;99.90;;;;;;4986764;28;20408;-70
2021/11/06 08:55:09;;;;;;;76.07;11.00;;;3.00;99.90;;;;;;4971229;28;20042;-70
2021/11/06 08:57:38;;;;;;;79.82;10.32;;;3.10;99.90;;;;;;4974691;28;20101;-70
2021/11/06 09:00:11;;;;;;;83.03;9.60;;;3.10;99.90;;;;;;4985429;28;20089;-70
2021/11/06 09:02:38;;;;;;;53.33;9.90;;;3.20;99.90;;;;;;4970335;28;20037;-71
2021/11/06 09:05:06;;;;;;;41.90;9.73;;;3.20;99.90;;;;;;4971291;28;20486;-70
2021/11/06 09:07:33;;;;;;;72.90;12.75;;;3.20;99.90;;;;;;4972739;28;20034;-70
2021/11/06 09:10:07;;;;;;;108.68;11.73;;;3.30;99.90;;;;;;4971423;28;20023;-70
2021/11/06 09:12:33;;;;;;;86.97;10.15;;;3.40;99.90;;;;;;4970330;28;20078;-71
2021/11/06 09:14:59;;;;;;;89.07;11.25;;;3.40;99.90;;;;;;4969138;28;20430;-70
2021/11/06 09:17:24;;;;;;;93.75;11.48;;;3.40;99.90;;;;;;4955557;28;20038;-70
2021/11/06 09:19:50;;;;;;;92.85;11.20;;;3.50;99.90;;;;;;4961851;28;20026;-70
2021/11/06 09:22:17;;;;;;;80.85;10.95;;;3.50;99.90;;;;;;4986572;28;20026;-70
2021/11/06 09:24:43;;;;;;;59.95;9.13;;;3.60;99.90;;;;;;4981153;28;20030;-70
2021/11/06 09:27:08;;;;;;;72.45;11.90;;;3.60;99.90;;;;;;4987051;28;20033;-71
2021/11/06 09:29:34;;;;;;;51.85;9.57;;;3.70;99.90;;;;;;4982297;28;20027;-70
2021/11/06 09:32:00;;;;;;;35.35;9.30;;;3.80;99.90;;;;;;4974655;28;20070;-70
2021/11/06 09:34:25;;;;;;;44.80;9.98;;;3.70;99.90;;;;;;4984188;28;20066;-70
2021/11/06 09:36:51;;;;;;;78.85;10.70;;;3.80;99.90;;;;;;4972162;28;20038;-70
2021/11/06 09:39:17;;;;;;;49.70;10.98;;;3.80;99.90;;;;;;4971229;28;20037;-71
2021/11/06 09:41:42;;;;;;;85.90;13.10;;;3.90;99.90;;;;;;4971925;28;20027;-70
2021/11/06 09:44:10;;;;;;;86.90;11.73;;;3.90;99.90;;;;;;4970259;28;21673;-69
2021/11/06 09:46:35;;;;;;;52.08;10.93;;;3.90;99.90;;;;;;4965221;28;20122;-71
2021/11/06 09:49:01;;;;;;;66.47;11.80;;;3.90;99.90;;;;;;4960531;28;20403;-71
2021/11/06 09:51:27;;;;;;;90.05;12.30;;;4.00;99.90;;;;;;4972093;28;20415;-71
2021/11/06 09:53:54;;;;;;;54.65;11.73;;;4.10;99.90;;;;;;4972333;28;20076;-70
2021/11/06 09:56:24;;;;;;;55.58;15.85;;;4.10;99.90;;;;;;4973176;28;20030;-70
2021/11/06 09:58:54;;;;;;;144.18;14.02;;;4.20;99.90;;;;;;4971767;28;20039;-71
2021/11/06 10:01:19;;;;;;;59.50;13.32;;;4.30;99.90;;;;;;4975305;28;20706;-70
2021/11/06 10:03:45;;;;;;;88.28;13.50;;;4.30;99.90;;;;;;4968861;28;20027;-70
2021/11/06 10:06:25;;;;;;;112.90;14.63;;;4.40;99.90;;;;;;4971005;28;20393;-72
2021/11/06 10:08:53;;;;;;;116.78;14.95;;;4.40;99.90;;;;;;4957296;28;20031;-73
2021/11/06 10:11:21;;;;;;;70.10;15.13;;;4.40;99.90;;;;;;4956491;28;20066;-72
2021/11/06 10:14:02;;;;;;;66.45;14.77;;;4.50;99.90;;;;;;4953535;28;20029;-72
2021/11/06 10:16:39;;;;;;;92.28;16.55;;;4.50;99.90;;;;;;4973278;28;20390;-72
2021/11/06 10:19:04;;;;;;;67.72;17.02;;;4.60;99.90;;;;;;4969352;28;20550;-72
2021/11/06 10:21:30;;;;;;;87.45;17.52;;;4.70;99.90;;;;;;4974035;28;20043;-72
2021/11/06 10:23:55;;;;;;;73.65;16.25;;;4.70;99.90;;;;;;4965071;28;20078;-72
2021/11/06 10:26:24;;;;;;;71.88;18.88;;;4.80;99.90;;;;;;4959936;28;20031;-72
2021/11/06 10:29:09;;;;;;;71.20;19.27;;;4.80;99.90;;;;;;4984973;28;20070;-72
2021/11/06 10:31:53;;;;;;;70.82;17.65;;;4.80;99.90;;;;;;4973627;28;20027;-73
2021/11/06 10:34:24;;;;;;;57.58;18.40;;;4.90;99.90;;;;;;4972693;28;20030;-71
2021/11/06 10:37:02;;;;;;;61.90;24.50;;;4.90;99.90;;;;;;4955547;28;20384;-71
2021/11/06 10:39:28;;;;;;;62.50;16.92;;;5.10;99.90;;;;;;4957694;28;20054;-71
2021/11/06 10:42:11;;;;;;;47.05;16.52;;;5.10;99.90;;;;;;4978488;28;20107;-71
2021/11/06 10:44:36;;;;;;;92.40;15.35;;;5.20;99.90;;;;;;4952307;28;20030;-71
2021/11/06 10:47:02;;;;;;;67.28;16.35;;;5.20;99.90;;;;;;4973414;28;20041;-72
2021/11/06 10:49:34;;;;;;;73.43;16.85;;;5.30;99.90;;;;;;4978365;28;20023;-71
2021/11/06 10:52:02;;;;;;;75.97;16.90;;;5.20;99.90;;;;;;4988509;28;20077;-71
2021/11/06 10:54:28;;;;;;;62.75;16.27;;;5.30;99.90;;;;;;4978967;28;20042;-71
2021/11/06 10:56:55;;;;;;;45.63;16.55;;;5.40;99.90;;;;;;4981758;28;20035;-72
2021/11/06 10:59:23;;;;;;;47.53;17.83;;;5.40;99.90;;;;;;4973646;28;20027;-72
2021/11/06 11:01:55;;;;;;;45.63;17.67;;;5.60;99.90;;;;;;4971094;28;20038;-73
2021/11/06 11:04:23;;;;;;;52.70;18.48;;;5.80;99.90;;;;;;4942015;28;20023;-73
2021/11/06 11:06:57;;;;;;;79.90;17.50;;;6.00;99.90;;;;;;4955825;28;20120;-73
2021/11/06 11:09:36;;;;;;;56.53;17.75;;;6.10;99.90;;;;;;4978482;28;20030;-73
2021/11/06 11:12:13;;;;;;;55.78;18.80;;;6.10;99.90;;;;;;4973195;28;20026;-74
2021/11/06 11:14:59;;;;;;;74.72;19.33;;;6.20;99.90;;;;;;4984087;28;20039;-74
2021/11/06 11:17:44;;;;;;;49.80;19.00;;;6.20;99.90;;;;;;4970514;28;20031;-71
2021/11/06 11:20:27;;;;;;;49.08;18.48;;;6.20;99.90;;;;;;4971492;28;20050;-73
2021/11/06 11:23:14;;;;;;;52.47;18.92;;;6.20;99.90;;;;;;4970718;28;20035;-73
2021/11/06 11:25:42;;;;;;;71.90;20.27;;;6.20;99.90;;;;;;4973088;28;20093;-73
2021/11/06 11:28:09;;;;;;;57.15;20.42;;;6.20;99.90;;;;;;4956815;28;20057;-73
2021/11/06 11:30:35;;;;;;;63.58;21.33;;;6.30;99.90;;;;;;4974995;28;20030;-73
2021/11/06 11:33:01;;;;;;;57.22;21.50;;;6.40;99.90;;;;;;4953713;28;20031;-73
2021/11/06 11:35:28;;;;;;;52.75;21.15;;;6.40;99.90;;;;;;4972574;28;20045;-73
2021/11/06 11:37:58;;;;;;;64.57;23.05;;;6.50;99.90;;;;;;4971304;28;20080;-72
2021/11/06 11:40:36;;;;;;;57.30;20.35;;;6.60;99.90;;;;;;4972463;28;20077;-73
2021/11/06 11:43:34;;;;;;;53.05;21.48;;;6.70;99.90;;;;;;4971797;28;20031;-73
2021/11/06 11:46:08;;;;;;;59.10;21.90;;;6.80;99.90;;;;;;4966916;28;20106;-73
2021/11/06 11:48:34;;;;;;;54.15;20.67;;;6.80;99.90;;;;;;4966489;28;20030;-74
2021/11/06 11:51:03;;;;;;;45.38;20.20;;;6.80;99.90;;;;;;4956940;28;20022;-74
2021/11/06 11:53:31;;;;;;;54.58;21.70;;;6.90;99.90;;;;;;4970371;28;20062;-72
2021/11/06 11:56:06;;;;;;;55.63;21.55;;;7.10;99.90;;;;;;4972266;28;20034;-72
2021/11/06 11:58:39;;;;;;;45.15;20.17;;;7.20;99.90;;;;;;4972708;28;20030;-71
2021/11/06 12:01:15;;;;;;;42.65;19.40;;;7.30;99.90;;;;;;4969508;28;20041;-70
2021/11/06 12:03:45;;;;;;;38.03;18.08;;;7.50;99.90;;;;;;4970815;28;20033;-70
2021/11/06 12:06:20;;;;;;;39.22;18.48;;;7.60;99.90;;;;;;4971794;28;20439;-72
2021/11/06 12:08:47;;;;;;;34.78;18.65;;;7.70;99.90;;;;;;4967021;28;20149;-71
2021/11/06 12:11:23;;;;;;;39.47;18.70;;;7.80;99.90;;;;;;4973127;28;20031;-70
2021/11/06 12:13:51;;;;;;;39.25;20.55;;;7.90;99.90;;;;;;4965348;28;20154;-71
2021/11/06 12:16:19;;;;;;;37.47;18.30;;;8.00;99.90;;;;;;4968758;28;20035;-70
2021/11/06 12:18:50;;;;;;;31.80;18.40;;;8.20;99.90;;;;;;4970873;28;20458;-70
2021/11/06 12:21:20;;;;;;;32.07;18.07;;;8.40;99.90;;;;;;4951737;29;20051;-71
2021/11/06 12:23:49;;;;;;;28.38;16.25;;;8.60;99.90;;;;;;4950912;28;20019;-70
2021/11/06 12:26:17;;;;;;;35.28;16.50;;;8.80;99.90;;;;;;4953002;28;20051;-70
2021/11/06 12:28:44;;;;;;;25.67;15.27;;;9.10;99.90;;;;;;4971555;28;20077;-70
2021/11/06 12:31:28;;;;;;;27.52;15.82;;;9.20;99.90;;;;;;4967702;28;20383;-70
2021/11/06 12:33:54;;;;;;;22.27;14.55;;;9.30;99.90;;;;;;4963147;28;20050;-68
2021/11/06 12:36:24;;;;;;;21.63;14.10;;;9.60;99.90;;;;;;4968657;28;20480;-71
2021/11/06 12:38:51;;;;;;;22.83;14.25;;;9.80;99.90;;;;;;4962446;28;20384;-69